Friday Harbor, Washington
Current Conditions -  °F | °C
As of 8:53 PM on Sunday 19 Oct 2014 (Local Time) from KFHR Reporting Station
Overcast Overcast  
Wind Chill: 58°   Ceiling: 9000
Heat Index: 58°   Visibility: 10mi
Dew Point: 52°   Wind: 0mph
Humidity: 81%   Direction: NA
Pressure: 29.63"   Gusts: NA
Location:  48.53°N, 123.02°W
Report Text: KFHR 200353Z AUTO 00000KT 10SM BKN090 OVC110 14/11 A2963 RMK AO2 SLP034 T01440111
Loading
Personal Weather Stations






























Interactive Weather Map
Tropical Storm Tracking
New forecast layout! Learn more

10-Day Weather Forecast

Advertisements
Track Severe Weather on mobile